Garderen, Netherlands
Current Conditions -  °F | °C
As of 2:55 AM on Tuesday 25 Nov 2014 (Local Time) from EHDL Reporting Station
Haze Haze  
Wind Chill: 32°   Ceiling: Unl
Heat Index: 32°   Visibility: 0.68mi
Dew Point: 30°   Wind: 1mph
Humidity: 93%   Direction: 100°E
Pressure: 30.33"   Gusts: NA
Location:  52.23°N, 5.71°E
Report Text: EHDL 250155Z AUTO 10001KT 1100 BR NCD M00/M01 Q1027 AMB
Loading
Personal Weather Stations






























Interactive Weather Map New forecast layout! Learn more

10-Day Weather Forecast

Advertisements
Track Severe Weather on mobile